Time;durP1;ratioP1;P1;durP2;ratioP2;P2;SDS_P1;SDS_P2;PMS_P1;PMS_P2;Temp;Humidity;BMP_temperature;BMP_pressure;BME280_temperature;BME280_humidity;BME280_pressure;Samples;Min_cycle;Max_cycle;Signal;HPM_P1;HPM_P2
2021/08/02 00:01:59;;;;;;;5.47;5.00;;;15.50;99.90;;;;;;5006255;28;20444;-80
2021/08/02 00:04:31;;;;;;;4.53;4.23;;;15.40;99.90;;;;;;5010216;28;20433;-79
2021/08/02 00:07:05;;;;;;;5.37;4.87;;;15.40;99.90;;;;;;5008747;28;20432;-79
2021/08/02 00:09:34;;;;;;;5.23;4.83;;;15.40;99.90;;;;;;5009069;28;20468;-81
2021/08/02 00:12:03;;;;;;;7.10;5.63;;;15.40;99.90;;;;;;5009526;28;20524;-80
2021/08/02 00:14:32;;;;;;;5.93;5.40;;;15.40;99.90;;;;;;5010607;28;20846;-80
2021/08/02 00:17:00;;;;;;;9.10;5.70;;;15.40;99.90;;;;;;5009475;28;20449;-80
2021/08/02 00:19:27;;;;;;;5.80;5.30;;;15.40;99.90;;;;;;5009379;28;20492;-79
2021/08/02 00:21:54;;;;;;;5.63;5.13;;;15.40;99.90;;;;;;5009954;28;20456;-80
2021/08/02 00:24:23;;;;;;;6.00;5.47;;;15.40;99.90;;;;;;5009284;28;20456;-80
2021/08/02 00:26:50;;;;;;;6.00;5.50;;;15.30;99.90;;;;;;5010080;28;20445;-80
2021/08/02 00:29:17;;;;;;;5.53;5.07;;;15.40;99.90;;;;;;5009530;28;20488;-80
2021/08/02 00:31:45;;;;;;;5.37;4.67;;;15.30;99.90;;;;;;5009312;28;20451;-80
2021/08/02 00:34:12;;;;;;;6.30;5.80;;;15.30;99.90;;;;;;5010147;28;20445;-80
2021/08/02 00:36:41;;;;;;;6.23;4.93;;;15.30;99.90;;;;;;5009793;28;20453;-80
2021/08/02 00:39:18;;;;;;;5.40;4.90;;;15.30;99.90;;;;;;5010095;28;20480;-80
2021/08/02 00:42:19;;;;;;;5.43;4.93;;;15.20;99.90;;;;;;5009575;28;20445;-79
2021/08/02 00:45:07;;;;;;;7.27;6.17;;;15.30;99.90;;;;;;5009582;28;20453;-80
2021/08/02 00:47:39;;;;;;;5.40;4.90;;;15.30;99.90;;;;;;5010057;28;20456;-80
2021/08/02 00:50:09;;;;;;;6.10;5.20;;;15.30;99.90;;;;;;5011980;28;20225;-80
2021/08/02 00:52:39;;;;;;;6.07;5.43;;;15.30;99.90;;;;;;5006076;28;20456;-79
2021/08/02 00:55:07;;;;;;;5.80;5.23;;;15.40;99.90;;;;;;5002862;28;20427;-80
2021/08/02 00:57:37;;;;;;;5.90;4.57;;;15.40;99.90;;;;;;5003134;28;20975;-79
2021/08/02 01:00:08;;;;;;;5.53;5.13;;;15.40;99.90;;;;;;5001176;28;20494;-79
2021/08/02 01:02:39;;;;;;;6.87;5.87;;;15.30;99.90;;;;;;5001431;28;20924;-79
2021/08/02 01:05:09;;;;;;;5.87;5.37;;;15.30;99.90;;;;;;5004345;28;20896;-79
2021/08/02 01:07:42;;;;;;;5.43;4.97;;;15.30;99.90;;;;;;5000923;28;20456;-79
2021/08/02 01:10:11;;;;;;;5.23;4.73;;;15.30;99.90;;;;;;5001939;28;20476;-80
2021/08/02 01:12:40;;;;;;;5.00;4.57;;;15.30;99.90;;;;;;5001312;28;20449;-80
2021/08/02 01:15:07;;;;;;;6.30;5.80;;;15.40;99.90;;;;;;5001085;28;20449;-79
2021/08/02 01:17:35;;;;;;;6.03;5.43;;;15.30;99.90;;;;;;5002105;28;20433;-79
2021/08/02 01:20:04;;;;;;;5.67;5.17;;;15.40;99.90;;;;;;5040515;22;20494;-81
2021/08/02 01:22:33;;;;;;;5.23;4.70;;;15.30;99.90;;;;;;5039004;28;20474;-82
2021/08/02 01:25:22;;;;;;;5.33;4.93;;;15.40;99.90;;;;;;5038848;28;20513;-82
2021/08/02 01:28:42;;;;;;;5.63;5.13;;;15.30;99.90;;;;;;5038991;28;20454;-82
2021/08/02 01:31:13;;;;;;;6.00;5.50;;;15.30;99.90;;;;;;5038657;28;20494;-83
2021/08/02 01:33:40;;;;;;;6.60;5.60;;;15.30;99.90;;;;;;5038971;28;20451;-82
2021/08/02 01:36:07;;;;;;;5.70;5.20;;;15.30;99.90;;;;;;5039927;28;20542;-82
2021/08/02 01:38:35;;;;;;;7.13;5.10;;;15.30;99.90;;;;;;5041216;28;20471;-82
2021/08/02 01:41:03;;;;;;;7.30;6.30;;;15.30;99.90;;;;;;5038831;28;20487;-82
2021/08/02 01:43:30;;;;;;;5.33;4.87;;;15.40;99.90;;;;;;5040214;28;20447;-82
2021/08/02 01:46:03;;;;;;;5.57;4.90;;;15.30;99.90;;;;;;5044799;28;20451;-83
2021/08/02 01:48:44;;;;;;;5.70;5.20;;;15.30;99.90;;;;;;5043059;28;20442;-82
2021/08/02 01:51:18;;;;;;;5.57;5.07;;;15.30;99.90;;;;;;5044706;28;20463;-82
2021/08/02 01:53:51;;;;;;;6.50;5.90;;;15.30;99.90;;;;;;5040824;28;20458;-82
2021/08/02 01:56:20;;;;;;;7.90;5.70;;;15.40;99.90;;;;;;5057372;28;20440;-82
2021/08/02 01:58:52;;;;;;;7.40;6.70;;;15.40;99.90;;;;;;5039594;28;20454;-82
2021/08/02 02:01:20;;;;;;;5.00;4.60;;;15.40;99.90;;;;;;5039010;28;21047;-82
2021/08/02 02:03:50;;;;;;;5.60;5.17;;;15.40;99.90;;;;;;5038508;28;21011;-82
2021/08/02 02:06:19;;;;;;;5.90;5.33;;;15.40;99.90;;;;;;5038327;28;20497;-82
2021/08/02 02:08:53;;;;;;;5.23;4.83;;;15.40;99.90;;;;;;5038976;28;20452;-82
2021/08/02 02:11:20;;;;;;;8.90;5.33;;;15.40;99.90;;;;;;5039749;28;20529;-82
2021/08/02 02:13:50;;;;;;;6.63;4.90;;;15.40;99.90;;;;;;5048850;28;20447;-81
2021/08/02 02:16:19;;;;;;;5.83;4.90;;;15.40;99.90;;;;;;5056949;28;20451;-84
2021/08/02 02:18:50;;;;;;;6.03;5.43;;;15.40;99.90;;;;;;5055362;28;20439;-82
2021/08/02 02:21:17;;;;;;;7.20;4.33;;;15.40;99.90;;;;;;5053557;28;20497;-82
2021/08/02 02:23:45;;;;;;;6.27;4.70;;;15.40;99.90;;;;;;5042258;28;20891;-82
2021/08/02 02:26:12;;;;;;;5.00;4.60;;;15.40;99.90;;;;;;5054412;28;20447;-82
2021/08/02 02:28:39;;;;;;;4.70;4.30;;;15.40;99.90;;;;;;5054066;28;20438;-81
2021/08/02 02:31:08;;;;;;;7.03;4.67;;;15.40;99.90;;;;;;5055092;28;20463;-82
2021/08/02 02:33:35;;;;;;;5.47;4.40;;;15.30;99.90;;;;;;5053611;28;20439;-82
2021/08/02 02:36:08;;;;;;;4.63;4.23;;;15.40;99.90;;;;;;5051152;28;20431;-82
2021/08/02 02:38:35;;;;;;;6.17;4.60;;;15.40;99.90;;;;;;5055634;28;20902;-82
2021/08/02 02:41:02;;;;;;;5.00;4.60;;;15.30;99.90;;;;;;5052686;28;20547;-83
2021/08/02 02:43:30;;;;;;;4.43;4.10;;;15.30;99.90;;;;;;5048235;28;20474;-83
2021/08/02 02:45:57;;;;;;;4.40;4.03;;;15.40;99.90;;;;;;5046337;28;20473;-83
2021/08/02 02:48:24;;;;;;;5.07;4.63;;;15.40;99.90;;;;;;5040711;28;20458;-83
2021/08/02 02:50:52;;;;;;;4.60;4.20;;;15.40;99.90;;;;;;5053461;28;20485;-82
2021/08/02 02:53:21;;;;;;;4.87;4.40;;;15.40;99.90;;;;;;5043837;28;20443;-83
2021/08/02 02:55:48;;;;;;;5.37;4.90;;;15.30;99.90;;;;;;5046780;28;20431;-83
2021/08/02 02:58:15;;;;;;;4.40;4.00;;;15.40;99.90;;;;;;5056661;28;20439;-82
2021/08/02 03:00:42;;;;;;;7.73;6.73;;;15.40;99.90;;;;;;5055408;28;20501;-82
2021/08/02 03:03:10;;;;;;;17.87;14.30;;;15.50;99.90;;;;;;5054752;28;20443;-83
2021/08/02 03:05:38;;;;;;;5.30;4.60;;;15.50;99.90;;;;;;5039819;28;20479;-82
2021/08/02 03:08:08;;;;;;;4.97;4.40;;;15.40;99.90;;;;;;5038361;28;20865;-83
2021/08/02 03:10:36;;;;;;;5.13;4.63;;;15.40;99.90;;;;;;5037800;28;20473;-83
2021/08/02 03:13:03;;;;;;;5.67;5.17;;;15.40;99.90;;;;;;5037415;28;20469;-83
2021/08/02 03:15:29;;;;;;;5.33;4.83;;;15.30;99.90;;;;;;5037182;28;20479;-83
2021/08/02 03:17:56;;;;;;;6.03;5.43;;;15.30;99.90;;;;;;5037406;28;20470;-83
2021/08/02 03:20:23;;;;;;;4.83;4.30;;;15.40;99.90;;;;;;5037176;28;20518;-83
2021/08/02 03:22:54;;;;;;;5.67;4.80;;;15.40;99.90;;;;;;5039242;28;20475;-83
2021/08/02 03:25:28;;;;;;;5.07;4.60;;;15.50;99.90;;;;;;5036843;28;20474;-83
2021/08/02 03:28:03;;;;;;;8.50;5.17;;;15.40;99.90;;;;;;5037613;28;20753;-82
2021/08/02 03:30:33;;;;;;;7.73;4.60;;;15.40;99.90;;;;;;5036621;28;20494;-82
2021/08/02 03:33:01;;;;;;;5.33;4.77;;;15.40;99.90;;;;;;5037303;28;20447;-82
2021/08/02 03:35:30;;;;;;;5.73;5.23;;;15.40;99.90;;;;;;5037551;28;20447;-83
2021/08/02 03:37:57;;;;;;;5.37;4.73;;;15.40;99.90;;;;;;5041016;28;20450;-83
2021/08/02 03:40:24;;;;;;;7.23;4.97;;;15.40;99.90;;;;;;5041667;28;20526;-83
2021/08/02 03:42:52;;;;;;;8.33;5.53;;;15.40;99.90;;;;;;5041573;28;20458;-83
2021/08/02 03:45:21;;;;;;;8.40;5.00;;;15.50;99.90;;;;;;5041303;28;20450;-83
2021/08/02 03:47:48;;;;;;;4.50;4.20;;;15.40;99.90;;;;;;5041182;28;20508;-82
2021/08/02 03:50:14;;;;;;;6.47;5.93;;;15.40;99.90;;;;;;5041171;28;20470;-83
2021/08/02 03:52:41;;;;;;;6.73;4.93;;;15.40;99.90;;;;;;5041580;28;20443;-82
2021/08/02 03:55:09;;;;;;;5.43;4.83;;;15.40;99.90;;;;;;5040748;28;20482;-83
2021/08/02 03:57:36;;;;;;;6.60;4.90;;;15.40;99.90;;;;;;5041432;28;20446;-82
2021/08/02 04:00:03;;;;;;;5.30;4.80;;;15.30;99.90;;;;;;5040090;28;20528;-84
2021/08/02 04:02:31;;;;;;;4.60;3.93;;;15.30;99.90;;;;;;5040975;28;20874;-83
2021/08/02 04:04:58;;;;;;;4.50;3.90;;;15.30;99.90;;;;;;5041088;28;20446;-82
2021/08/02 04:07:24;;;;;;;3.40;3.20;;;15.30;99.90;;;;;;5041807;28;20473;-82
2021/08/02 04:09:51;;;;;;;5.20;4.30;;;15.40;99.90;;;;;;5040700;28;20502;-83
2021/08/02 04:12:18;;;;;;;3.63;3.17;;;15.40;99.90;;;;;;5045008;28;20459;-82
2021/08/02 04:14:44;;;;;;;4.33;3.93;;;15.50;99.90;;;;;;5043039;28;20957;-82
2021/08/02 04:17:11;;;;;;;4.00;3.37;;;15.50;99.90;;;;;;5041176;28;20455;-82
2021/08/02 04:19:39;;;;;;;3.77;3.40;;;15.40;99.90;;;;;;5041390;28;20509;-83
2021/08/02 04:22:05;;;;;;;3.80;3.50;;;15.40;99.90;;;;;;5041416;28;20490;-83
2021/08/02 04:24:32;;;;;;;4.90;3.30;;;15.40;99.90;;;;;;5041483;28;20447;-83
2021/08/02 04:26:59;;;;;;;4.87;4.47;;;15.40;99.90;;;;;;5040408;28;20475;-83
2021/08/02 04:29:25;;;;;;;3.67;3.37;;;15.30;99.90;;;;;;5038651;28;20502;-82
2021/08/02 04:31:52;;;;;;;4.83;3.13;;;15.30;99.90;;;;;;5058956;28;20573;-83
2021/08/02 04:34:20;;;;;;;5.10;4.13;;;15.30;99.90;;;;;;5043036;28;20478;-83
2021/08/02 04:36:48;;;;;;;4.60;3.67;;;15.30;99.90;;;;;;5049364;28;20447;-83
2021/08/02 04:39:14;;;;;;;4.73;4.10;;;15.20;99.90;;;;;;5041729;28;20443;-83
2021/08/02 04:41:41;;;;;;;4.07;3.67;;;15.30;99.90;;;;;;5041411;28;21109;-82
2021/08/02 04:44:08;;;;;;;5.83;3.63;;;15.30;99.90;;;;;;5041972;28;20447;-83
2021/08/02 04:46:34;;;;;;;3.90;3.43;;;15.30;99.90;;;;;;5040685;28;20447;-83
2021/08/02 04:49:01;;;;;;;3.83;3.40;;;15.30;99.90;;;;;;5043022;28;20448;-81
2021/08/02 04:51:27;;;;;;;3.60;3.30;;;15.30;99.90;;;;;;5041482;28;20454;-83
2021/08/02 04:53:55;;;;;;;3.47;3.27;;;15.30;99.90;;;;;;5042579;28;20508;-82
2021/08/02 04:56:22;;;;;;;3.50;3.20;;;15.30;99.90;;;;;;5039583;28;20447;-83
2021/08/02 04:58:48;;;;;;;3.70;3.33;;;15.30;99.90;;;;;;5039346;28;20456;-83
2021/08/02 05:01:15;;;;;;;4.47;3.33;;;15.30;99.90;;;;;;5050112;28;20470;-79
2021/08/02 05:03:41;;;;;;;5.13;3.80;;;15.30;99.90;;;;;;5054024;28;20443;-81
2021/08/02 05:06:08;;;;;;;4.40;4.00;;;15.30;99.90;;;;;;5043528;28;20804;-81
2021/08/02 05:08:35;;;;;;;5.13;3.77;;;15.30;99.90;;;;;;5040217;28;20440;-81
2021/08/02 05:11:03;;;;;;;5.80;4.43;;;15.30;99.90;;;;;;5040124;28;20463;-81
2021/08/02 05:13:29;;;;;;;5.23;3.87;;;15.30;99.90;;;;;;5039555;28;20530;-81
2021/08/02 05:15:56;;;;;;;3.73;3.43;;;15.30;99.90;;;;;;5040233;28;20459;-83
2021/08/02 05:18:23;;;;;;;3.93;3.53;;;15.30;99.90;;;;;;5053645;28;20450;-80
2021/08/02 05:20:49;;;;;;;5.17;3.90;;;15.30;99.90;;;;;;5054243;28;20505;-80
2021/08/02 05:23:16;;;;;;;4.97;3.40;;;15.40;99.90;;;;;;5054575;28;20435;-80
2021/08/02 05:25:43;;;;;;;4.13;3.80;;;15.50;99.90;;;;;;5055854;28;20514;-80
2021/08/02 05:28:10;;;;;;;6.30;4.13;;;15.60;99.90;;;;;;5057593;28;20474;-80
2021/08/02 05:30:37;;;;;;;5.13;4.10;;;15.60;99.90;;;;;;5057157;28;20451;-82
2021/08/02 05:33:04;;;;;;;2.73;2.53;;;15.80;99.90;;;;;;5055948;28;20466;-81
2021/08/02 05:35:30;;;;;;;3.60;3.30;;;15.80;99.90;;;;;;5056922;28;20431;-81
2021/08/02 05:37:57;;;;;;;3.30;3.00;;;15.80;99.90;;;;;;5048886;28;20453;-81
2021/08/02 05:40:25;;;;;;;4.00;3.60;;;15.80;99.90;;;;;;5047656;28;20502;-81
2021/08/02 05:42:51;;;;;;;4.43;3.20;;;15.90;99.90;;;;;;5050204;28;20590;-81
2021/08/02 05:45:19;;;;;;;3.80;3.17;;;16.10;99.90;;;;;;5052632;28;20446;-82
2021/08/02 05:47:46;;;;;;;3.87;3.47;;;16.10;99.90;;;;;;5048275;28;20455;-82
2021/08/02 05:50:12;;;;;;;4.00;3.27;;;16.10;99.90;;;;;;5049118;28;20466;-82
2021/08/02 05:52:41;;;;;;;5.57;3.10;;;16.20;99.90;;;;;;5042637;28;20513;-83
2021/08/02 05:55:09;;;;;;;6.07;2.97;;;16.20;99.90;;;;;;5044841;28;20454;-81
2021/08/02 05:57:35;;;;;;;5.83;3.10;;;16.20;99.90;;;;;;5042613;28;20446;-80
2021/08/02 06:00:02;;;;;;;3.87;3.10;;;16.10;99.90;;;;;;5041516;28;20474;-81
2021/08/02 06:02:30;;;;;;;4.03;2.90;;;16.20;99.90;;;;;;5047012;28;20487;-81
2021/08/02 06:04:57;;;;;;;7.10;3.70;;;16.20;99.90;;;;;;5037471;28;20451;-81
2021/08/02 06:07:23;;;;;;;7.03;3.53;;;16.30;99.90;;;;;;5038632;28;20447;-81
2021/08/02 06:09:51;;;;;;;3.20;2.90;;;16.20;99.90;;;;;;5036969;28;20471;-82
2021/08/02 06:12:18;;;;;;;3.40;3.10;;;16.30;99.90;;;;;;5036721;28;20562;-83
2021/08/02 06:14:45;;;;;;;4.87;3.00;;;16.30;99.90;;;;;;5039365;28;20446;-82
2021/08/02 06:17:11;;;;;;;2.70;2.50;;;16.30;99.90;;;;;;5037604;28;20569;-82
2021/08/02 06:19:43;;;;;;;3.63;3.20;;;16.30;99.90;;;;;;5037867;28;20549;-82
2021/08/02 06:22:10;;;;;;;5.10;3.80;;;16.40;99.90;;;;;;5038457;28;20462;-82
2021/08/02 06:24:36;;;;;;;4.30;3.43;;;16.60;99.90;;;;;;5038711;28;20815;-81
2021/08/02 06:27:06;;;;;;;3.33;3.03;;;16.50;99.90;;;;;;5038747;28;20443;-82
2021/08/02 06:29:33;;;;;;;4.50;3.63;;;16.70;99.90;;;;;;5038697;28;20462;-83
2021/08/02 06:31:59;;;;;;;4.23;3.53;;;16.50;99.90;;;;;;5039069;28;20443;-83
2021/08/02 06:34:26;;;;;;;7.53;4.07;;;16.40;99.90;;;;;;5038982;28;20458;-82
2021/08/02 06:36:54;;;;;;;4.00;3.70;;;16.70;99.90;;;;;;5037903;28;20455;-83
2021/08/02 06:39:20;;;;;;;7.33;3.27;;;16.60;99.90;;;;;;5037603;28;20471;-82
2021/08/02 06:41:47;;;;;;;4.43;3.83;;;16.70;99.90;;;;;;5037461;28;20537;-82
2021/08/02 06:44:14;;;;;;;4.97;3.00;;;16.70;99.90;;;;;;5037408;28;20447;-82
2021/08/02 06:46:40;;;;;;;3.83;2.93;;;16.80;99.90;;;;;;5038977;28;20478;-82
2021/08/02 06:49:07;;;;;;;4.87;3.83;;;16.90;99.90;;;;;;5038304;28;20454;-82
2021/08/02 06:51:34;;;;;;;3.57;3.27;;;;;;;;;;5042366;28;20455;-82
2021/08/02 06:54:02;;;;;;;2.70;2.50;;;16.80;99.90;;;;;;5040177;28;20454;-82
2021/08/02 06:56:28;;;;;;;2.90;2.10;;;16.70;99.90;;;;;;5043073;28;20493;-82
2021/08/02 06:58:55;;;;;;;3.37;2.50;;;16.60;99.90;;;;;;5040379;28;20466;-83
2021/08/02 07:01:22;;;;;;;5.33;2.10;;;16.60;99.90;;;;;;5038454;28;20855;-83
2021/08/02 07:03:48;;;;;;;2.70;2.50;;;16.60;99.90;;;;;;5052030;28;20477;-81
2021/08/02 07:06:15;;;;;;;2.50;2.13;;;16.60;99.90;;;;;;5048235;28;20558;-83
2021/08/02 07:08:41;;;;;;;2.47;2.27;;;16.80;99.90;;;;;;5039984;28;20450;-83
2021/08/02 07:11:09;;;;;;;3.80;1.93;;;16.90;99.90;;;;;;5036709;28;20497;-83
2021/08/02 07:13:36;;;;;;;3.90;2.40;;;17.00;99.90;;;;;;5037481;28;20443;-83
2021/08/02 07:16:03;;;;;;;3.13;2.20;;;17.00;99.90;;;;;;5041052;28;20957;-82
2021/08/02 07:18:32;;;;;;;3.67;2.38;;;17.10;99.90;;;;;;5037768;28;20861;-82
2021/08/02 07:20:59;;;;;;;11.13;8.77;;;17.10;99.90;;;;;;5041487;28;20649;-83
2021/08/02 07:23:26;;;;;;;8.97;5.63;;;17.30;99.90;;;;;;5044600;28;20487;-82
2021/08/02 07:25:52;;;;;;;2.20;2.00;;;17.40;99.90;;;;;;5052126;28;20470;-83
2021/08/02 07:28:21;;;;;;;3.23;1.83;;;17.50;99.90;;;;;;5052075;28;20443;-83
2021/08/02 07:30:48;;;;;;;1.70;1.60;;;17.50;99.90;;;;;;5050585;28;20486;-83
2021/08/02 07:33:15;;;;;;;4.77;1.60;;;17.50;99.90;;;;;;5043595;28;20443;-82
2021/08/02 07:35:42;;;;;;;3.03;2.10;;;17.50;99.90;;;;;;5037642;28;20509;-82
2021/08/02 07:38:09;;;;;;;4.70;2.90;;;16.90;99.90;;;;;;5038084;28;20483;-83
2021/08/02 07:40:36;;;;;;;2.03;1.67;;;17.50;99.90;;;;;;5037827;28;20501;-81
2021/08/02 07:43:03;;;;;;;4.67;2.87;;;17.50;99.90;;;;;;5050590;28;20529;-79
2021/08/02 07:45:30;;;;;;;2.00;1.80;;;17.60;99.90;;;;;;5044314;28;20747;-81
2021/08/02 07:47:57;;;;;;;4.50;2.00;;;17.60;99.90;;;;;;5038913;28;20447;-81
2021/08/02 07:50:24;;;;;;;3.42;1.77;;;17.60;99.90;;;;;;5037671;28;20474;-81
2021/08/02 07:52:50;;;;;;;3.42;2.42;;;17.70;99.90;;;;;;5037247;28;20330;-81
2021/08/02 07:55:17;;;;;;;7.80;2.30;;;17.80;99.90;;;;;;5037919;28;20232;-81
2021/08/02 07:57:43;;;;;;;1.73;1.53;;;18.00;99.90;;;;;;5037347;28;20447;-81
2021/08/02 08:00:14;;;;;;;4.57;2.20;;;18.00;99.90;;;;;;5037156;28;20475;-81
2021/08/02 08:02:42;;;;;;;1.40;1.30;;;18.00;99.90;;;;;;5036527;28;20546;-81
2021/08/02 08:05:09;;;;;;;4.07;1.77;;;17.80;99.90;;;;;;5036666;28;20435;-81
2021/08/02 08:07:43;;;;;;;2.10;1.50;;;17.70;99.90;;;;;;5037881;28;20451;-81
2021/08/02 08:10:11;;;;;;;2.90;2.07;;;17.80;99.90;;;;;;5037818;28;20589;-81
2021/08/02 08:12:38;;;;;;;5.80;1.83;;;18.00;99.90;;;;;;5037168;28;20457;-80
2021/08/02 08:15:06;;;;;;;3.17;2.00;;;18.00;99.90;;;;;;5036526;28;20447;-80
2021/08/02 08:17:33;;;;;;;2.23;1.70;;;18.00;99.90;;;;;;5036237;28;20501;-81
2021/08/02 08:20:01;;;;;;;2.80;1.97;;;17.90;99.90;;;;;;5036184;28;21075;-81
2021/08/02 08:22:27;;;;;;;7.80;2.10;;;17.70;99.90;;;;;;5039374;28;20483;-80
2021/08/02 08:24:54;;;;;;;2.80;1.87;;;17.70;99.90;;;;;;5039693;28;20455;-80
2021/08/02 08:27:21;;;;;;;2.00;1.87;;;17.50;99.90;;;;;;5045598;28;20446;-78
2021/08/02 08:29:47;;;;;;;2.20;1.57;;;17.50;99.90;;;;;;5041413;28;20470;-79
2021/08/02 08:32:14;;;;;;;2.10;1.70;;;17.40;99.90;;;;;;5047344;28;20451;-78
2021/08/02 08:34:41;;;;;;;2.97;2.40;;;17.50;99.90;;;;;;5046294;28;20459;-79
2021/08/02 08:37:08;;;;;;;3.00;1.70;;;17.50;99.90;;;;;;5042814;28;20443;-80
2021/08/02 08:39:35;;;;;;;1.70;1.27;;;17.70;99.90;;;;;;5042028;28;20499;-81
2021/08/02 08:42:02;;;;;;;4.47;1.57;;;17.80;99.90;;;;;;5040277;28;20482;-80
2021/08/02 08:44:30;;;;;;;2.53;1.53;;;18.40;99.90;;;;;;5040450;28;20443;-80
2021/08/02 08:46:56;;;;;;;2.13;1.50;;;18.20;99.90;;;;;;5040621;28;20454;-80
2021/08/02 08:49:23;;;;;;;3.53;1.80;;;18.30;99.90;;;;;;5039550;28;20470;-80
2021/08/02 08:51:50;;;;;;;4.60;1.50;;;18.40;99.90;;;;;;5041865;28;20458;-81
2021/08/02 08:54:18;;;;;;;5.27;1.40;;;18.50;99.90;;;;;;5041126;28;20470;-81
2021/08/02 08:56:44;;;;;;;2.20;1.20;;;18.50;99.90;;;;;;5042996;28;20443;-81
2021/08/02 08:59:13;;;;;;;1.97;1.57;;;18.40;99.90;;;;;;5039113;28;20497;-82
2021/08/02 09:01:40;;;;;;;2.57;1.37;;;18.50;99.90;;;;;;5038102;28;20478;-81
2021/08/02 09:04:07;;;;;;;2.03;1.90;;;18.50;99.90;;;;;;5040891;28;20475;-81
2021/08/02 09:06:44;;;;;;;4.07;1.53;;;18.50;99.90;;;;;;5039692;28;20482;-81
2021/08/02 09:09:11;;;;;;;2.97;1.70;;;18.40;99.90;;;;;;5038912;28;20423;-80
2021/08/02 09:11:39;;;;;;;2.20;1.43;;;18.70;99.90;;;;;;5038864;28;20483;-80
2021/08/02 09:14:10;;;;;;;2.50;1.63;;;18.60;99.90;;;;;;5041638;28;20447;-79
2021/08/02 09:16:37;;;;;;;2.27;2.07;;;18.70;99.90;;;;;;5041471;28;20435;-80
2021/08/02 09:19:10;;;;;;;2.13;1.80;;;18.90;99.90;;;;;;5043388;28;20457;-81
2021/08/02 09:21:41;;;;;;;7.57;2.80;;;18.60;99.90;;;;;;5041302;28;20508;-80
2021/08/02 09:24:08;;;;;;;2.53;1.47;;;18.60;99.90;;;;;;5040563;28;20465;-81
2021/08/02 09:26:40;;;;;;;1.57;1.40;;;18.50;99.90;;;;;;5040203;28;21019;-81
2021/08/02 09:29:09;;;;;;;2.03;1.20;;;18.80;99.90;;;;;;5039623;28;20968;-81
2021/08/02 09:31:38;;;;;;;2.70;1.50;;;18.60;99.90;;;;;;5041002;28;20443;-82
2021/08/02 09:34:06;;;;;;;2.17;1.50;;;18.80;99.90;;;;;;5047992;28;20469;-79
2021/08/02 09:36:40;;;;;;;2.33;1.20;;;18.80;99.90;;;;;;5047844;28;20857;-80
2021/08/02 09:39:08;;;;;;;2.90;1.80;;;18.80;99.90;;;;;;5040683;28;20473;-80
2021/08/02 09:41:35;;;;;;;1.40;1.30;;;18.90;99.90;;;;;;5048137;28;20438;-80
2021/08/02 09:44:05;;;;;;;2.60;1.40;;;19.10;99.90;;;;;;5046472;28;20483;-80
2021/08/02 09:46:32;;;;;;;2.90;1.43;;;19.30;99.90;;;;;;5045012;28;20440;-81
2021/08/02 09:49:03;;;;;;;2.90;1.50;;;19.40;99.90;;;;;;5047794;28;20458;-79
2021/08/02 09:51:40;;;;;;;2.23;1.53;;;19.20;99.90;;;;;;5053395;28;20422;-79
2021/08/02 09:54:07;;;;;;;2.33;1.90;;;19.30;99.90;;;;;;5058393;28;20431;-80
2021/08/02 09:56:34;;;;;;;2.73;1.60;;;19.30;99.90;;;;;;5058222;28;20446;-78
2021/08/02 09:59:00;;;;;;;3.37;2.20;;;19.20;99.90;;;;;;5054172;28;20458;-80
2021/08/02 10:01:28;;;;;;;2.95;1.33;;;19.20;99.90;;;;;;5054027;28;20932;-80
2021/08/02 10:03:55;;;;;;;1.83;1.43;;;19.10;99.90;;;;;;5054316;28;20220;-80
2021/08/02 10:06:22;;;;;;;1.80;1.70;;;19.20;99.90;;;;;;5054984;28;20439;-81
2021/08/02 10:08:48;;;;;;;2.60;1.73;;;19.10;99.90;;;;;;5048301;28;20942;-81
2021/08/02 10:11:18;;;;;;;3.63;2.50;;;19.10;99.90;;;;;;5039029;28;20998;-82
2021/08/02 10:13:45;;;;;;;7.70;1.83;;;19.10;99.90;;;;;;5038752;28;20491;-81
2021/08/02 10:16:14;;;;;;;4.93;1.97;;;19.10;99.90;;;;;;5037610;28;20479;-82
2021/08/02 10:18:48;;;;;;;1.93;1.30;;;19.00;99.90;;;;;;5037590;28;20450;-81
2021/08/02 10:21:16;;;;;;;2.50;1.50;;;18.50;99.90;;;;;;5037699;28;20876;-81
2021/08/02 10:23:42;;;;;;;2.80;1.20;;;19.10;99.90;;;;;;5037288;28;20521;-82
2021/08/02 10:26:19;;;;;;;3.20;1.20;;;19.10;99.90;;;;;;5037712;28;20483;-82
2021/08/02 10:28:53;;;;;;;6.40;1.73;;;19.00;99.90;;;;;;5037731;28;20867;-81
2021/08/02 10:31:20;;;;;;;4.20;1.67;;;19.00;99.90;;;;;;5039024;28;20576;-82
2021/08/02 10:33:49;;;;;;;2.97;1.67;;;19.00;99.90;;;;;;5039669;28;20470;-81
2021/08/02 10:36:17;;;;;;;3.23;1.53;;;19.20;99.90;;;;;;5040457;28;20521;-81
2021/08/02 10:38:46;;;;;;;1.63;1.53;;;19.30;99.90;;;;;;5039782;28;20447;-81
2021/08/02 10:41:24;;;;;;;1.83;1.00;;;19.30;99.90;;;;;;5038725;28;20482;-81
2021/08/02 10:43:51;;;;;;;2.80;1.57;;;19.30;99.90;;;;;;5038205;28;20467;-81
2021/08/02 10:46:20;;;;;;;2.73;1.40;;;19.20;99.90;;;;;;5039289;28;20558;-81
2021/08/02 10:48:49;;;;;;;2.30;1.90;;;19.40;99.90;;;;;;5040193;28;20495;-80
2021/08/02 10:51:17;;;;;;;2.97;1.20;;;19.50;99.90;;;;;;5039610;28;20467;-81
2021/08/02 10:53:45;;;;;;;3.47;1.70;;;19.50;99.90;;;;;;5037583;28;20443;-81
2021/08/02 10:56:11;;;;;;;1.90;1.53;;;19.50;99.90;;;;;;5042147;28;20483;-80
2021/08/02 10:58:43;;;;;;;9.60;1.60;;;19.60;99.90;;;;;;5041842;28;20447;-81
2021/08/02 11:01:12;;;;;;;2.57;1.47;;;19.60;99.90;;;;;;5043360;28;20467;-80
2021/08/02 11:03:41;;;;;;;2.13;1.53;;;19.70;99.90;;;;;;5039582;28;20487;-81
2021/08/02 11:06:11;;;;;;;4.20;2.07;;;19.60;99.90;;;;;;5037176;28;20513;-80
2021/08/02 11:08:46;;;;;;;2.43;1.50;;;19.70;99.90;;;;;;5037093;28;20431;-80
2021/08/02 11:11:20;;;;;;;2.07;1.37;;;19.90;99.90;;;;;;5038330;28;20467;-80
2021/08/02 11:13:47;;;;;;;3.17;1.80;;;20.00;99.90;;;;;;5042930;28;20486;-79
2021/08/02 11:16:13;;;;;;;3.20;1.30;;;20.00;99.90;;;;;;5047448;28;20454;-79
2021/08/02 11:18:44;;;;;;;1.90;1.43;;;20.10;99.90;;;;;;5047171;28;20446;-79
2021/08/02 11:21:23;;;;;;;2.50;1.70;;;20.00;99.90;;;;;;5041686;28;20534;-80
2021/08/02 11:23:50;;;;;;;3.07;1.70;;;19.90;99.90;;;;;;5038884;28;20470;-80
2021/08/02 11:26:20;;;;;;;1.50;1.40;;;19.70;99.90;;;;;;5038680;28;20447;-80
2021/08/02 11:28:48;;;;;;;1.80;1.20;;;19.70;99.90;;;;;;5038044;28;20447;-81
2021/08/02 11:31:15;;;;;;;1.33;1.20;;;19.60;99.90;;;;;;5039469;28;20482;-81
2021/08/02 11:33:44;;;;;;;3.77;1.50;;;19.50;99.90;;;;;;5038696;28;20561;-81
2021/08/02 11:36:17;;;;;;;2.07;1.67;;;19.60;99.90;;;;;;5039513;28;20863;-81
2021/08/02 11:38:45;;;;;;;2.13;1.77;;;19.60;99.90;;;;;;5039597;28;20914;-80
2021/08/02 11:41:23;;;;;;;3.00;1.50;;;19.60;99.90;;;;;;5041810;28;20475;-80
2021/08/02 11:43:50;;;;;;;2.10;1.40;;;19.60;99.90;;;;;;5042760;28;20471;-80
2021/08/02 11:46:17;;;;;;;2.60;1.30;;;19.80;99.90;;;;;;5041623;28;20447;-80
2021/08/02 11:48:44;;;;;;;1.40;1.30;;;19.90;99.90;;;;;;5042212;28;20463;-80
2021/08/02 11:51:13;;;;;;;3.33;1.37;;;20.00;99.90;;;;;;5041284;28;20466;-82
2021/08/02 11:53:39;;;;;;;1.53;1.43;;;20.00;99.90;;;;;;5049505;28;20447;-81
2021/08/02 11:56:08;;;;;;;1.80;1.00;;;20.00;99.90;;;;;;5048569;28;20803;-80
2021/08/02 11:58:42;;;;;;;2.60;1.73;;;20.20;99.90;;;;;;5046507;28;20451;-80
2021/08/02 12:01:08;;;;;;;3.13;1.43;;;20.30;99.90;;;;;;5049173;28;20463;-80
2021/08/02 12:03:35;;;;;;;2.23;1.70;;;20.40;99.90;;;;;;5051746;28;20483;-79
2021/08/02 12:06:03;;;;;;;4.27;1.70;;;20.50;99.90;;;;;;5052346;28;20476;-79
2021/08/02 12:08:30;;;;;;;1.40;1.30;;;20.60;99.90;;;;;;5049908;28;20473;-80
2021/08/02 12:10:59;;;;;;;2.57;1.50;;;20.70;99.90;;;;;;5047541;28;20463;-80
2021/08/02 12:13:40;;;;;;;2.50;1.40;;;20.90;99.90;;;;;;5051105;28;20451;-80
2021/08/02 12:16:07;;;;;;;2.20;1.30;;;20.90;99.90;;;;;;5047407;28;20437;-80
2021/08/02 12:18:33;;;;;;;2.03;1.40;;;20.80;99.90;;;;;;5049860;28;20447;-80
2021/08/02 12:21:12;;;;;;;2.60;1.43;;;20.80;99.90;;;;;;5050596;28;20493;-80
2021/08/02 12:23:39;;;;;;;6.77;2.10;;;20.70;99.90;;;;;;5049275;28;20463;-81
2021/08/02 12:26:17;;;;;;;2.50;1.53;;;20.60;99.90;;;;;;5045875;28;20458;-80
2021/08/02 12:28:45;;;;;;;1.67;1.23;;;20.70;99.90;;;;;;5045615;28;20438;-81
2021/08/02 12:31:16;;;;;;;3.67;1.70;;;20.70;99.90;;;;;;5045895;28;20467;-80
2021/08/02 12:33:46;;;;;;;3.37;2.33;;;20.80;99.90;;;;;;5046593;28;20447;-80
2021/08/02 12:36:12;;;;;;;6.23;1.90;;;20.90;99.90;;;;;;5042982;28;20447;-79
2021/08/02 12:38:43;;;;;;;1.33;1.23;;;20.90;99.90;;;;;;5044042;28;20453;-80
2021/08/02 12:41:10;;;;;;;1.90;1.30;;;20.90;99.90;;;;;;5044051;28;20285;-79
2021/08/02 12:43:36;;;;;;;2.97;1.53;;;20.90;99.90;;;;;;5043238;28;20514;-80
2021/08/02 12:46:06;;;;;;;1.57;1.30;;;20.90;99.90;;;;;;5042859;28;20457;-80
2021/08/02 12:48:32;;;;;;;2.00;1.63;;;21.00;99.90;;;;;;5044970;28;20501;-80
2021/08/02 12:50:59;;;;;;;6.23;1.90;;;21.00;99.90;;;;;;5043071;28;21034;-80
2021/08/02 12:53:26;;;;;;;4.60;1.87;;;21.10;99.90;;;;;;5043025;28;20447;-81
2021/08/02 12:55:52;;;;;;;2.50;1.67;;;21.10;99.90;;;;;;5043394;28;20447;-81